sensor_id;sensor_type;location;lat;lon;timestamp;P1;durP1;ratioP1;P2;durP2;ratioP2
8397;SDS011;4236;54.504;9.588;2022-10-22T00:00:51;59.97;;;55.80;;
8397;SDS011;4236;54.504;9.588;2022-10-22T00:03:19;56.23;;;52.60;;
8397;SDS011;4236;54.504;9.588;2022-10-22T00:05:46;58.57;;;54.50;;
8397;SDS011;4236;54.504;9.588;2022-10-22T00:08:14;57.73;;;53.73;;
8397;SDS011;4236;54.504;9.588;2022-10-22T00:10:42;64.70;;;59.60;;
8397;SDS011;4236;54.504;9.588;2022-10-22T00:13:11;59.17;;;54.90;;
8397;SDS011;4236;54.504;9.588;2022-10-22T00:15:39;59.07;;;55.00;;
8397;SDS011;4236;54.504;9.588;2022-10-22T00:18:06;59.53;;;55.23;;
8397;SDS011;4236;54.504;9.588;2022-10-22T00:20:34;58.27;;;53.80;;
8397;SDS011;4236;54.504;9.588;2022-10-22T00:23:01;61.03;;;56.37;;
8397;SDS011;4236;54.504;9.588;2022-10-22T00:25:29;66.13;;;60.53;;
8397;SDS011;4236;54.504;9.588;2022-10-22T00:27:57;66.43;;;60.83;;
8397;SDS011;4236;54.504;9.588;2022-10-22T00:30:27;60.90;;;56.40;;
8397;SDS011;4236;54.504;9.588;2022-10-22T00:32:55;61.53;;;56.80;;
8397;SDS011;4236;54.504;9.588;2022-10-22T00:35:22;66.10;;;60.70;;
8397;SDS011;4236;54.504;9.588;2022-10-22T00:37:50;63.80;;;59.03;;
8397;SDS011;4236;54.504;9.588;2022-10-22T00:40:18;63.20;;;58.20;;
8397;SDS011;4236;54.504;9.588;2022-10-22T00:42:45;58.87;;;54.70;;
8397;SDS011;4236;54.504;9.588;2022-10-22T00:45:14;61.90;;;57.20;;
8397;SDS011;4236;54.504;9.588;2022-10-22T00:47:47;64.50;;;58.73;;
8397;SDS011;4236;54.504;9.588;2022-10-22T00:50:18;64.83;;;59.30;;
8397;SDS011;4236;54.504;9.588;2022-10-22T00:52:49;67.47;;;61.53;;
8397;SDS011;4236;54.504;9.588;2022-10-22T00:55:18;62.83;;;57.73;;
8397;SDS011;4236;54.504;9.588;2022-10-22T00:57:46;60.50;;;56.10;;
8397;SDS011;4236;54.504;9.588;2022-10-22T01:00:15;66.60;;;61.07;;
8397;SDS011;4236;54.504;9.588;2022-10-22T01:02:43;64.27;;;59.10;;
8397;SDS011;4236;54.504;9.588;2022-10-22T01:05:13;60.00;;;55.40;;
8397;SDS011;4236;54.504;9.588;2022-10-22T01:07:41;64.03;;;58.93;;
8397;SDS011;4236;54.504;9.588;2022-10-22T01:10:15;64.30;;;58.93;;
8397;SDS011;4236;54.504;9.588;2022-10-22T01:12:53;61.30;;;56.60;;
8397;SDS011;4236;54.504;9.588;2022-10-22T01:15:31;63.03;;;57.67;;
8397;SDS011;4236;54.504;9.588;2022-10-22T01:18:07;63.10;;;58.13;;
8397;SDS011;4236;54.504;9.588;2022-10-22T01:20:48;61.77;;;57.17;;
8397;SDS011;4236;54.504;9.588;2022-10-22T01:23:43;60.40;;;55.73;;
8397;SDS011;4236;54.504;9.588;2022-10-22T01:26:31;62.83;;;58.20;;
8397;SDS011;4236;54.504;9.588;2022-10-22T01:29:12;63.83;;;58.93;;
8397;SDS011;4236;54.504;9.588;2022-10-22T01:31:44;63.97;;;59.27;;
8397;SDS011;4236;54.504;9.588;2022-10-22T01:34:15;63.03;;;57.77;;
8397;SDS011;4236;54.504;9.588;2022-10-22T01:36:44;61.77;;;56.87;;
8397;SDS011;4236;54.504;9.588;2022-10-22T01:39:14;64.70;;;59.70;;
8397;SDS011;4236;54.504;9.588;2022-10-22T01:41:43;69.10;;;63.30;;
8397;SDS011;4236;54.504;9.588;2022-10-22T01:44:23;65.40;;;60.17;;
8397;SDS011;4236;54.504;9.588;2022-10-22T01:46:57;66.93;;;61.40;;
8397;SDS011;4236;54.504;9.588;2022-10-22T01:49:40;72.67;;;65.77;;
8397;SDS011;4236;54.504;9.588;2022-10-22T01:52:24;69.63;;;63.47;;
8397;SDS011;4236;54.504;9.588;2022-10-22T01:54:58;71.50;;;65.30;;
8397;SDS011;4236;54.504;9.588;2022-10-22T01:57:35;66.30;;;61.07;;
8397;SDS011;4236;54.504;9.588;2022-10-22T02:00:12;67.80;;;62.97;;
8397;SDS011;4236;54.504;9.588;2022-10-22T02:02:42;62.93;;;58.50;;
8397;SDS011;4236;54.504;9.588;2022-10-22T02:05:16;67.87;;;62.87;;
8397;SDS011;4236;54.504;9.588;2022-10-22T02:07:50;70.60;;;64.67;;
8397;SDS011;4236;54.504;9.588;2022-10-22T02:10:23;67.17;;;61.77;;
8397;SDS011;4236;54.504;9.588;2022-10-22T02:12:52;66.10;;;60.30;;
8397;SDS011;4236;54.504;9.588;2022-10-22T02:15:23;63.77;;;58.97;;
8397;SDS011;4236;54.504;9.588;2022-10-22T02:17:53;60.37;;;55.90;;
8397;SDS011;4236;54.504;9.588;2022-10-22T02:20:25;63.10;;;58.07;;
8397;SDS011;4236;54.504;9.588;2022-10-22T02:22:54;60.77;;;55.53;;
8397;SDS011;4236;54.504;9.588;2022-10-22T02:25:24;65.40;;;59.47;;
8397;SDS011;4236;54.504;9.588;2022-10-22T02:27:56;79.80;;;71.10;;
8397;SDS011;4236;54.504;9.588;2022-10-22T02:30:30;68.63;;;62.10;;
8397;SDS011;4236;54.504;9.588;2022-10-22T02:33:01;87.90;;;68.47;;
8397;SDS011;4236;54.504;9.588;2022-10-22T02:35:31;76.10;;;67.53;;
8397;SDS011;4236;54.504;9.588;2022-10-22T02:37:59;75.53;;;65.50;;
8397;SDS011;4236;54.504;9.588;2022-10-22T02:40:28;74.00;;;66.30;;
8397;SDS011;4236;54.504;9.588;2022-10-22T02:42:57;65.73;;;60.03;;
8397;SDS011;4236;54.504;9.588;2022-10-22T02:45:25;74.80;;;66.00;;
8397;SDS011;4236;54.504;9.588;2022-10-22T02:47:54;70.50;;;62.93;;
8397;SDS011;4236;54.504;9.588;2022-10-22T02:50:22;66.90;;;60.20;;
8397;SDS011;4236;54.504;9.588;2022-10-22T02:52:49;70.00;;;63.23;;
8397;SDS011;4236;54.504;9.588;2022-10-22T02:55:17;80.00;;;72.00;;
8397;SDS011;4236;54.504;9.588;2022-10-22T02:57:44;98.93;;;71.37;;
8397;SDS011;4236;54.504;9.588;2022-10-22T03:00:12;72.33;;;66.23;;
8397;SDS011;4236;54.504;9.588;2022-10-22T03:02:40;72.30;;;64.27;;
8397;SDS011;4236;54.504;9.588;2022-10-22T03:05:09;72.90;;;65.30;;
8397;SDS011;4236;54.504;9.588;2022-10-22T03:07:37;77.30;;;68.87;;
8397;SDS011;4236;54.504;9.588;2022-10-22T03:10:05;74.03;;;66.43;;
8397;SDS011;4236;54.504;9.588;2022-10-22T03:12:33;70.60;;;63.40;;
8397;SDS011;4236;54.504;9.588;2022-10-22T03:15:01;76.53;;;68.33;;
8397;SDS011;4236;54.504;9.588;2022-10-22T03:17:29;69.90;;;63.03;;
8397;SDS011;4236;54.504;9.588;2022-10-22T03:19:56;69.53;;;62.43;;
8397;SDS011;4236;54.504;9.588;2022-10-22T03:22:26;73.53;;;65.17;;
8397;SDS011;4236;54.504;9.588;2022-10-22T03:24:57;72.30;;;64.40;;
8397;SDS011;4236;54.504;9.588;2022-10-22T03:27:27;78.80;;;61.83;;
8397;SDS011;4236;54.504;9.588;2022-10-22T03:29:55;289.20;;;73.10;;
8397;SDS011;4236;54.504;9.588;2022-10-22T03:32:24;192.53;;;69.20;;
8397;SDS011;4236;54.504;9.588;2022-10-22T03:34:52;75.90;;;60.80;;
8397;SDS011;4236;54.504;9.588;2022-10-22T03:37:20;151.10;;;69.47;;
8397;SDS011;4236;54.504;9.588;2022-10-22T03:39:49;122.47;;;64.27;;
8397;SDS011;4236;54.504;9.588;2022-10-22T03:42:18;68.40;;;61.83;;
8397;SDS011;4236;54.504;9.588;2022-10-22T03:44:46;90.80;;;66.53;;
8397;SDS011;4236;54.504;9.588;2022-10-22T03:47:14;130.73;;;69.10;;
8397;SDS011;4236;54.504;9.588;2022-10-22T03:49:41;132.23;;;68.87;;
8397;SDS011;4236;54.504;9.588;2022-10-22T03:52:10;74.53;;;66.27;;
8397;SDS011;4236;54.504;9.588;2022-10-22T03:54:40;436.13;;;99.50;;
8397;SDS011;4236;54.504;9.588;2022-10-22T03:57:09;409.27;;;96.30;;
8397;SDS011;4236;54.504;9.588;2022-10-22T03:59:38;319.07;;;89.13;;
8397;SDS011;4236;54.504;9.588;2022-10-22T04:02:07;289.70;;;93.20;;
8397;SDS011;4236;54.504;9.588;2022-10-22T04:04:36;212.03;;;89.37;;
8397;SDS011;4236;54.504;9.588;2022-10-22T04:07:04;139.97;;;78.50;;
8397;SDS011;4236;54.504;9.588;2022-10-22T04:09:33;95.80;;;77.97;;
8397;SDS011;4236;54.504;9.588;2022-10-22T04:12:01;153.70;;;83.33;;
8397;SDS011;4236;54.504;9.588;2022-10-22T04:14:32;349.63;;;108.50;;
8397;SDS011;4236;54.504;9.588;2022-10-22T04:17:00;239.17;;;98.53;;
8397;SDS011;4236;54.504;9.588;2022-10-22T04:19:27;100.30;;;90.83;;
8397;SDS011;4236;54.504;9.588;2022-10-22T04:21:56;236.47;;;104.07;;
8397;SDS011;4236;54.504;9.588;2022-10-22T04:24:24;110.00;;;98.67;;
8397;SDS011;4236;54.504;9.588;2022-10-22T04:26:52;383.60;;;122.97;;
8397;SDS011;4236;54.504;9.588;2022-10-22T04:29:20;152.40;;;117.13;;
8397;SDS011;4236;54.504;9.588;2022-10-22T04:31:49;293.70;;;127.43;;
8397;SDS011;4236;54.504;9.588;2022-10-22T04:34:17;226.30;;;126.80;;
8397;SDS011;4236;54.504;9.588;2022-10-22T04:36:44;131.43;;;121.20;;
8397;SDS011;4236;54.504;9.588;2022-10-22T04:39:13;178.53;;;127.40;;
8397;SDS011;4236;54.504;9.588;2022-10-22T04:41:40;478.30;;;159.30;;
8397;SDS011;4236;54.504;9.588;2022-10-22T04:44:08;179.77;;;124.27;;
8397;SDS011;4236;54.504;9.588;2022-10-22T04:46:42;214.77;;;133.37;;
8397;SDS011;4236;54.504;9.588;2022-10-22T04:49:11;351.10;;;146.67;;
8397;SDS011;4236;54.504;9.588;2022-10-22T04:51:38;138.53;;;126.37;;
8397;SDS011;4236;54.504;9.588;2022-10-22T04:54:06;517.77;;;167.10;;
8397;SDS011;4236;54.504;9.588;2022-10-22T04:56:34;290.17;;;144.20;;
8397;SDS011;4236;54.504;9.588;2022-10-22T04:59:02;526.53;;;164.10;;
8397;SDS011;4236;54.504;9.588;2022-10-22T05:01:31;540.90;;;164.90;;
8397;SDS011;4236;54.504;9.588;2022-10-22T05:04:08;820.83;;;215.27;;
8397;SDS011;4236;54.504;9.588;2022-10-22T05:06:40;553.17;;;166.87;;
8397;SDS011;4236;54.504;9.588;2022-10-22T05:09:10;532.37;;;186.83;;
8397;SDS011;4236;54.504;9.588;2022-10-22T05:11:39;718.47;;;213.53;;
8397;SDS011;4236;54.504;9.588;2022-10-22T05:14:14;418.70;;;174.20;;
8397;SDS011;4236;54.504;9.588;2022-10-22T05:16:43;530.50;;;188.03;;
8397;SDS011;4236;54.504;9.588;2022-10-22T05:19:16;721.30;;;223.63;;
8397;SDS011;4236;54.504;9.588;2022-10-22T05:21:46;597.30;;;205.23;;
8397;SDS011;4236;54.504;9.588;2022-10-22T05:24:13;980.20;;;264.37;;
8397;SDS011;4236;54.504;9.588;2022-10-22T05:26:41;187.27;;;167.93;;
8397;SDS011;4236;54.504;9.588;2022-10-22T05:29:08;185.03;;;170.03;;
8397;SDS011;4236;54.504;9.588;2022-10-22T05:31:36;193.70;;;173.60;;
8397;SDS011;4236;54.504;9.588;2022-10-22T05:34:04;251.70;;;174.77;;
8397;SDS011;4236;54.504;9.588;2022-10-22T05:36:33;629.80;;;232.50;;
8397;SDS011;4236;54.504;9.588;2022-10-22T05:39:00;254.03;;;196.93;;
8397;SDS011;4236;54.504;9.588;2022-10-22T05:41:28;628.80;;;240.53;;
8397;SDS011;4236;54.504;9.588;2022-10-22T05:43:56;379.30;;;216.70;;
8397;SDS011;4236;54.504;9.588;2022-10-22T05:46:25;667.53;;;255.60;;
8397;SDS011;4236;54.504;9.588;2022-10-22T05:48:55;253.63;;;209.80;;
8397;SDS011;4236;54.504;9.588;2022-10-22T05:51:24;230.73;;;213.90;;
8397;SDS011;4236;54.504;9.588;2022-10-22T05:53:55;670.83;;;271.13;;
8397;SDS011;4236;54.504;9.588;2022-10-22T05:56:25;631.93;;;263.87;;
8397;SDS011;4236;54.504;9.588;2022-10-22T05:58:53;507.80;;;240.77;;
8397;SDS011;4236;54.504;9.588;2022-10-22T06:01:23;252.63;;;231.50;;
8397;SDS011;4236;54.504;9.588;2022-10-22T06:03:52;527.63;;;246.17;;
8397;SDS011;4236;54.504;9.588;2022-10-22T06:06:21;786.17;;;297.63;;
8397;SDS011;4236;54.504;9.588;2022-10-22T06:08:55;299.13;;;237.90;;
8397;SDS011;4236;54.504;9.588;2022-10-22T06:11:26;294.40;;;235.83;;
8397;SDS011;4236;54.504;9.588;2022-10-22T06:13:59;416.20;;;249.70;;
8397;SDS011;4236;54.504;9.588;2022-10-22T06:16:27;247.57;;;232.43;;
8397;SDS011;4236;54.504;9.588;2022-10-22T06:18:55;865.97;;;306.00;;
8397;SDS011;4236;54.504;9.588;2022-10-22T06:21:22;704.17;;;285.77;;
8397;SDS011;4236;54.504;9.588;2022-10-22T06:23:50;658.03;;;289.70;;
8397;SDS011;4236;54.504;9.588;2022-10-22T06:26:19;273.37;;;253.10;;
8397;SDS011;4236;54.504;9.588;2022-10-22T06:28:46;361.03;;;270.83;;
8397;SDS011;4236;54.504;9.588;2022-10-22T06:31:14;630.77;;;306.87;;
8397;SDS011;4236;54.504;9.588;2022-10-22T06:33:42;301.47;;;271.23;;
8397;SDS011;4236;54.504;9.588;2022-10-22T06:36:11;506.53;;;287.50;;
8397;SDS011;4236;54.504;9.588;2022-10-22T06:38:40;378.77;;;286.73;;
8397;SDS011;4236;54.504;9.588;2022-10-22T06:41:08;301.40;;;269.33;;
8397;SDS011;4236;54.504;9.588;2022-10-22T06:43:39;317.83;;;267.63;;
8397;SDS011;4236;54.504;9.588;2022-10-22T06:46:07;289.63;;;268.17;;
8397;SDS011;4236;54.504;9.588;2022-10-22T06:48:42;298.43;;;273.23;;
8397;SDS011;4236;54.504;9.588;2022-10-22T06:51:14;477.00;;;283.80;;
8397;SDS011;4236;54.504;9.588;2022-10-22T06:53:42;596.57;;;299.67;;
8397;SDS011;4236;54.504;9.588;2022-10-22T06:56:10;475.13;;;298.97;;
8397;SDS011;4236;54.504;9.588;2022-10-22T06:58:41;572.37;;;306.10;;
8397;SDS011;4236;54.504;9.588;2022-10-22T07:01:09;557.10;;;311.97;;
8397;SDS011;4236;54.504;9.588;2022-10-22T07:03:39;414.97;;;295.67;;
8397;SDS011;4236;54.504;9.588;2022-10-22T07:06:08;569.13;;;324.93;;
8397;SDS011;4236;54.504;9.588;2022-10-22T07:08:37;698.97;;;333.43;;
8397;SDS011;4236;54.504;9.588;2022-10-22T07:11:05;446.47;;;308.27;;
8397;SDS011;4236;54.504;9.588;2022-10-22T07:13:35;436.33;;;307.50;;
8397;SDS011;4236;54.504;9.588;2022-10-22T07:16:04;510.60;;;311.23;;
8397;SDS011;4236;54.504;9.588;2022-10-22T07:18:34;687.00;;;338.20;;
8397;SDS011;4236;54.504;9.588;2022-10-22T07:21:03;433.20;;;324.70;;
8397;SDS011;4236;54.504;9.588;2022-10-22T07:23:31;396.73;;;319.87;;
8397;SDS011;4236;54.504;9.588;2022-10-22T07:25:59;351.20;;;312.07;;
8397;SDS011;4236;54.504;9.588;2022-10-22T07:28:27;336.00;;;304.60;;
8397;SDS011;4236;54.504;9.588;2022-10-22T07:30:55;575.67;;;275.40;;
8397;SDS011;4236;54.504;9.588;2022-10-22T07:33:24;373.63;;;238.83;;
8397;SDS011;4236;54.504;9.588;2022-10-22T07:35:56;324.10;;;232.50;;
8397;SDS011;4236;54.504;9.588;2022-10-22T07:38:24;411.33;;;247.03;;
8397;SDS011;4236;54.504;9.588;2022-10-22T07:40:52;416.73;;;250.53;;
8397;SDS011;4236;54.504;9.588;2022-10-22T07:43:19;354.60;;;268.40;;
8397;SDS011;4236;54.504;9.588;2022-10-22T07:45:47;277.27;;;249.17;;
8397;SDS011;4236;54.504;9.588;2022-10-22T07:48:15;429.40;;;264.50;;
8397;SDS011;4236;54.504;9.588;2022-10-22T07:50:45;309.87;;;248.30;;
8397;SDS011;4236;54.504;9.588;2022-10-22T07:53:12;432.43;;;270.03;;
8397;SDS011;4236;54.504;9.588;2022-10-22T07:55:40;322.70;;;254.97;;
8397;SDS011;4236;54.504;9.588;2022-10-22T07:58:07;429.50;;;281.60;;
8397;SDS011;4236;54.504;9.588;2022-10-22T08:00:35;280.87;;;253.47;;
8397;SDS011;4236;54.504;9.588;2022-10-22T08:03:03;288.97;;;257.87;;
8397;SDS011;4236;54.504;9.588;2022-10-22T08:05:30;352.47;;;264.10;;
8397;SDS011;4236;54.504;9.588;2022-10-22T08:07:59;280.20;;;250.17;;
8397;SDS011;4236;54.504;9.588;2022-10-22T08:10:27;610.23;;;292.23;;
8397;SDS011;4236;54.504;9.588;2022-10-22T08:12:55;281.40;;;254.87;;
8397;SDS011;4236;54.504;9.588;2022-10-22T08:15:22;292.73;;;263.53;;
8397;SDS011;4236;54.504;9.588;2022-10-22T08:17:52;532.73;;;292.27;;
8397;SDS011;4236;54.504;9.588;2022-10-22T08:20:20;544.97;;;298.87;;
8397;SDS011;4236;54.504;9.588;2022-10-22T08:22:47;389.90;;;278.13;;
8397;SDS011;4236;54.504;9.588;2022-10-22T08:25:17;286.17;;;263.80;;
8397;SDS011;4236;54.504;9.588;2022-10-22T08:27:44;284.17;;;264.97;;
8397;SDS011;4236;54.504;9.588;2022-10-22T08:30:12;277.83;;;260.03;;
8397;SDS011;4236;54.504;9.588;2022-10-22T08:32:40;262.33;;;250.00;;
8397;SDS011;4236;54.504;9.588;2022-10-22T08:35:08;279.20;;;258.27;;
8397;SDS011;4236;54.504;9.588;2022-10-22T08:37:42;284.37;;;263.23;;
8397;SDS011;4236;54.504;9.588;2022-10-22T08:40:10;260.53;;;247.20;;
8397;SDS011;4236;54.504;9.588;2022-10-22T08:42:54;283.17;;;264.73;;
8397;SDS011;4236;54.504;9.588;2022-10-22T08:45:45;277.87;;;261.30;;
8397;SDS011;4236;54.504;9.588;2022-10-22T08:48:27;275.47;;;255.93;;
8397;SDS011;4236;54.504;9.588;2022-10-22T08:51:06;267.83;;;254.47;;
8397;SDS011;4236;54.504;9.588;2022-10-22T08:53:40;267.87;;;254.77;;
8397;SDS011;4236;54.504;9.588;2022-10-22T08:56:17;267.97;;;254.50;;
8397;SDS011;4236;54.504;9.588;2022-10-22T08:58:49;261.27;;;247.03;;
8397;SDS011;4236;54.504;9.588;2022-10-22T09:01:26;253.10;;;239.03;;
8397;SDS011;4236;54.504;9.588;2022-10-22T09:04:00;237.97;;;226.27;;
8397;SDS011;4236;54.504;9.588;2022-10-22T09:06:34;220.70;;;208.47;;
8397;SDS011;4236;54.504;9.588;2022-10-22T09:09:04;209.57;;;198.77;;
8397;SDS011;4236;54.504;9.588;2022-10-22T09:11:41;188.03;;;177.50;;
8397;SDS011;4236;54.504;9.588;2022-10-22T09:14:13;168.73;;;159.27;;
8397;SDS011;4236;54.504;9.588;2022-10-22T09:16:50;154.23;;;145.43;;
8397;SDS011;4236;54.504;9.588;2022-10-22T09:19:32;144.70;;;136.87;;
8397;SDS011;4236;54.504;9.588;2022-10-22T09:22:09;134.73;;;126.43;;
8397;SDS011;4236;54.504;9.588;2022-10-22T09:24:45;118.87;;;110.67;;
8397;SDS011;4236;54.504;9.588;2022-10-22T09:27:16;107.17;;;99.37;;
8397;SDS011;4236;54.504;9.588;2022-10-22T09:29:46;94.43;;;87.37;;
8397;SDS011;4236;54.504;9.588;2022-10-22T09:32:14;89.13;;;81.77;;
8397;SDS011;4236;54.504;9.588;2022-10-22T09:34:43;75.80;;;69.70;;
8397;SDS011;4236;54.504;9.588;2022-10-22T09:37:11;69.10;;;63.40;;
8397;SDS011;4236;54.504;9.588;2022-10-22T09:39:44;71.27;;;64.87;;
8397;SDS011;4236;54.504;9.588;2022-10-22T09:42:14;64.13;;;58.83;;
8397;SDS011;4236;54.504;9.588;2022-10-22T09:44:49;66.23;;;60.83;;
8397;SDS011;4236;54.504;9.588;2022-10-22T09:47:26;65.07;;;59.47;;
8397;SDS011;4236;54.504;9.588;2022-10-22T09:50:17;61.57;;;56.50;;
8397;SDS011;4236;54.504;9.588;2022-10-22T09:52:53;63.40;;;57.93;;
8397;SDS011;4236;54.504;9.588;2022-10-22T09:55:24;62.60;;;57.10;;
8397;SDS011;4236;54.504;9.588;2022-10-22T09:57:54;59.80;;;54.80;;
8397;SDS011;4236;54.504;9.588;2022-10-22T10:00:26;57.87;;;53.03;;
8397;SDS011;4236;54.504;9.588;2022-10-22T10:02:54;61.83;;;56.77;;
8397;SDS011;4236;54.504;9.588;2022-10-22T10:05:27;61.77;;;56.67;;
8397;SDS011;4236;54.504;9.588;2022-10-22T10:07:55;59.90;;;54.90;;
8397;SDS011;4236;54.504;9.588;2022-10-22T10:10:26;57.53;;;53.00;;
8397;SDS011;4236;54.504;9.588;2022-10-22T10:13:16;61.60;;;56.20;;
8397;SDS011;4236;54.504;9.588;2022-10-22T10:15:55;60.20;;;55.20;;
8397;SDS011;4236;54.504;9.588;2022-10-22T10:18:29;62.93;;;57.97;;
8397;SDS011;4236;54.504;9.588;2022-10-22T10:21:09;62.10;;;56.80;;
8397;SDS011;4236;54.504;9.588;2022-10-22T10:23:46;58.33;;;54.00;;
8397;SDS011;4236;54.504;9.588;2022-10-22T10:26:23;63.07;;;58.07;;
8397;SDS011;4236;54.504;9.588;2022-10-22T10:29:01;61.97;;;57.10;;
8397;SDS011;4236;54.504;9.588;2022-10-22T10:31:43;61.03;;;56.13;;
8397;SDS011;4236;54.504;9.588;2022-10-22T10:34:24;61.30;;;56.40;;
8397;SDS011;4236;54.504;9.588;2022-10-22T10:37:03;62.63;;;57.80;;
8397;SDS011;4236;54.504;9.588;2022-10-22T10:39:43;60.03;;;55.13;;
8397;SDS011;4236;54.504;9.588;2022-10-22T10:42:23;59.60;;;55.20;;
8397;SDS011;4236;54.504;9.588;2022-10-22T10:45:04;64.00;;;59.17;;
8397;SDS011;4236;54.504;9.588;2022-10-22T10:47:50;60.77;;;55.90;;
8397;SDS011;4236;54.504;9.588;2022-10-22T10:50:38;60.40;;;55.77;;
8397;SDS011;4236;54.504;9.588;2022-10-22T10:53:16;60.93;;;55.63;;
8397;SDS011;4236;54.504;9.588;2022-10-22T10:55:52;57.83;;;53.77;;
8397;SDS011;4236;54.504;9.588;2022-10-22T10:58:28;62.53;;;57.83;;
8397;SDS011;4236;54.504;9.588;2022-10-22T11:01:08;59.13;;;54.97;;
8397;SDS011;4236;54.504;9.588;2022-10-22T11:03:57;60.80;;;56.13;;
8397;SDS011;4236;54.504;9.588;2022-10-22T11:06:38;58.53;;;54.03;;
8397;SDS011;4236;54.504;9.588;2022-10-22T11:09:06;55.43;;;51.20;;
8397;SDS011;4236;54.504;9.588;2022-10-22T11:11:49;56.60;;;52.53;;
8397;SDS011;4236;54.504;9.588;2022-10-22T11:14:22;58.10;;;54.20;;
8397;SDS011;4236;54.504;9.588;2022-10-22T11:16:58;56.00;;;51.93;;
8397;SDS011;4236;54.504;9.588;2022-10-22T11:19:31;56.87;;;52.97;;
8397;SDS011;4236;54.504;9.588;2022-10-22T11:22:24;56.90;;;52.50;;
8397;SDS011;4236;54.504;9.588;2022-10-22T11:24:58;53.80;;;50.00;;
8397;SDS011;4236;54.504;9.588;2022-10-22T11:27:32;55.03;;;51.23;;
8397;SDS011;4236;54.504;9.588;2022-10-22T11:30:10;54.47;;;50.70;;
8397;SDS011;4236;54.504;9.588;2022-10-22T11:32:41;54.03;;;50.50;;
8397;SDS011;4236;54.504;9.588;2022-10-22T11:35:13;57.30;;;53.40;;
8397;SDS011;4236;54.504;9.588;2022-10-22T11:37:50;56.90;;;53.07;;
8397;SDS011;4236;54.504;9.588;2022-10-22T11:40:21;57.67;;;53.10;;
8397;SDS011;4236;54.504;9.588;2022-10-22T11:43:02;54.10;;;50.33;;
8397;SDS011;4236;54.504;9.588;2022-10-22T11:45:33;54.83;;;51.10;;
8397;SDS011;4236;54.504;9.588;2022-10-22T11:48:13;54.80;;;51.10;;
8397;SDS011;4236;54.504;9.588;2022-10-22T11:50:45;56.97;;;52.67;;
8397;SDS011;4236;54.504;9.588;2022-10-22T11:53:16;55.50;;;51.60;;
8397;SDS011;4236;54.504;9.588;2022-10-22T11:55:46;55.10;;;51.33;;
8397;SDS011;4236;54.504;9.588;2022-10-22T12:01:23;53.37;;;49.70;;
8397;SDS011;4236;54.504;9.588;2022-10-22T12:06:51;53.60;;;49.87;;
8397;SDS011;4236;54.504;9.588;2022-10-22T12:09:23;50.47;;;46.87;;
8397;SDS011;4236;54.504;9.588;2022-10-22T12:12:00;50.00;;;46.80;;
8397;SDS011;4236;54.504;9.588;2022-10-22T12:14:31;45.47;;;42.40;;
8397;SDS011;4236;54.504;9.588;2022-10-22T12:17:02;42.43;;;39.93;;
8397;SDS011;4236;54.504;9.588;2022-10-22T12:19:36;39.13;;;36.80;;
8397;SDS011;4236;54.504;9.588;2022-10-22T12:22:12;37.50;;;35.40;;
8397;SDS011;4236;54.504;9.588;2022-10-22T12:24:42;37.83;;;35.70;;
8397;SDS011;4236;54.504;9.588;2022-10-22T12:27:18;38.07;;;35.90;;
8397;SDS011;4236;54.504;9.588;2022-10-22T12:29:52;37.00;;;34.70;;
8397;SDS011;4236;54.504;9.588;2022-10-22T12:32:21;39.00;;;36.70;;
8397;SDS011;4236;54.504;9.588;2022-10-22T12:34:50;39.30;;;36.77;;
8397;SDS011;4236;54.504;9.588;2022-10-22T12:37:18;40.17;;;37.73;;
8397;SDS011;4236;54.504;9.588;2022-10-22T12:39:46;40.40;;;37.90;;
8397;SDS011;4236;54.504;9.588;2022-10-22T12:42:14;40.77;;;38.37;;
8397;SDS011;4236;54.504;9.588;2022-10-22T12:44:43;39.90;;;37.40;;
8397;SDS011;4236;54.504;9.588;2022-10-22T12:47:12;39.53;;;36.93;;
8397;SDS011;4236;54.504;9.588;2022-10-22T12:49:44;38.03;;;35.50;;
8397;SDS011;4236;54.504;9.588;2022-10-22T12:52:17;39.63;;;37.03;;
8397;SDS011;4236;54.504;9.588;2022-10-22T12:54:48;39.30;;;36.93;;
8397;SDS011;4236;54.504;9.588;2022-10-22T12:57:19;39.20;;;36.67;;
8397;SDS011;4236;54.504;9.588;2022-10-22T12:59:50;39.37;;;36.83;;
8397;SDS011;4236;54.504;9.588;2022-10-22T13:02:19;37.20;;;34.63;;
8397;SDS011;4236;54.504;9.588;2022-10-22T13:07:47;37.03;;;34.40;;
8397;SDS011;4236;54.504;9.588;2022-10-22T13:10:18;34.50;;;32.77;;
8397;SDS011;4236;54.504;9.588;2022-10-22T13:12:50;36.50;;;34.00;;
8397;SDS011;4236;54.504;9.588;2022-10-22T13:15:21;36.50;;;34.20;;
8397;SDS011;4236;54.504;9.588;2022-10-22T13:18:03;36.23;;;34.23;;
8397;SDS011;4236;54.504;9.588;2022-10-22T13:20:32;36.67;;;34.20;;
8397;SDS011;4236;54.504;9.588;2022-10-22T13:23:04;37.47;;;35.00;;
8397;SDS011;4236;54.504;9.588;2022-10-22T13:25:32;36.53;;;34.10;;
8397;SDS011;4236;54.504;9.588;2022-10-22T13:28:15;36.77;;;34.23;;
8397;SDS011;4236;54.504;9.588;2022-10-22T13:30:50;37.47;;;35.27;;
8397;SDS011;4236;54.504;9.588;2022-10-22T13:33:20;38.27;;;36.00;;
8397;SDS011;4236;54.504;9.588;2022-10-22T13:35:52;38.27;;;35.23;;
8397;SDS011;4236;54.504;9.588;2022-10-22T13:38:23;36.40;;;34.20;;
8397;SDS011;4236;54.504;9.588;2022-10-22T13:40:52;38.60;;;36.30;;
8397;SDS011;4236;54.504;9.588;2022-10-22T13:43:20;35.07;;;32.83;;
8397;SDS011;4236;54.504;9.588;2022-10-22T13:45:51;38.20;;;35.77;;
8397;SDS011;4236;54.504;9.588;2022-10-22T13:48:20;37.67;;;35.20;;
8397;SDS011;4236;54.504;9.588;2022-10-22T13:50:50;36.87;;;34.07;;
8397;SDS011;4236;54.504;9.588;2022-10-22T13:53:19;36.57;;;33.93;;
8397;SDS011;4236;54.504;9.588;2022-10-22T13:55:51;34.63;;;32.27;;
8397;SDS011;4236;54.504;9.588;2022-10-22T13:58:19;35.60;;;33.43;;
8397;SDS011;4236;54.504;9.588;2022-10-22T14:00:51;37.93;;;35.20;;
8397;SDS011;4236;54.504;9.588;2022-10-22T14:03:21;36.10;;;33.87;;
8397;SDS011;4236;54.504;9.588;2022-10-22T14:05:51;37.87;;;34.80;;
8397;SDS011;4236;54.504;9.588;2022-10-22T14:08:19;36.90;;;34.70;;
8397;SDS011;4236;54.504;9.588;2022-10-22T14:10:50;37.10;;;34.77;;
8397;SDS011;4236;54.504;9.588;2022-10-22T14:13:19;36.37;;;34.20;;
8397;SDS011;4236;54.504;9.588;2022-10-22T14:15:48;36.53;;;34.40;;
8397;SDS011;4236;54.504;9.588;2022-10-22T14:18:19;38.17;;;35.77;;
8397;SDS011;4236;54.504;9.588;2022-10-22T14:20:51;38.27;;;36.03;;
8397;SDS011;4236;54.504;9.588;2022-10-22T14:23:21;39.70;;;37.20;;
8397;SDS011;4236;54.504;9.588;2022-10-22T14:25:52;40.47;;;37.40;;
8397;SDS011;4236;54.504;9.588;2022-10-22T14:28:21;40.47;;;37.57;;
8397;SDS011;4236;54.504;9.588;2022-10-22T14:30:49;39.73;;;37.00;;
8397;SDS011;4236;54.504;9.588;2022-10-22T14:33:18;40.33;;;37.60;;
8397;SDS011;4236;54.504;9.588;2022-10-22T14:35:56;40.23;;;36.93;;
8397;SDS011;4236;54.504;9.588;2022-10-22T14:38:24;39.37;;;36.93;;
8397;SDS011;4236;54.504;9.588;2022-10-22T14:40:53;41.00;;;37.90;;
8397;SDS011;4236;54.504;9.588;2022-10-22T14:43:21;41.33;;;38.40;;
8397;SDS011;4236;54.504;9.588;2022-10-22T14:45:50;41.87;;;39.03;;
8397;SDS011;4236;54.504;9.588;2022-10-22T14:48:18;41.27;;;38.63;;
8397;SDS011;4236;54.504;9.588;2022-10-22T14:50:46;43.70;;;40.80;;
8397;SDS011;4236;54.504;9.588;2022-10-22T14:53:14;43.27;;;40.27;;
8397;SDS011;4236;54.504;9.588;2022-10-22T14:55:43;43.43;;;40.60;;
8397;SDS011;4236;54.504;9.588;2022-10-22T14:58:13;45.10;;;41.67;;
8397;SDS011;4236;54.504;9.588;2022-10-22T15:00:42;44.57;;;41.60;;
8397;SDS011;4236;54.504;9.588;2022-10-22T15:03:10;44.57;;;41.30;;
8397;SDS011;4236;54.504;9.588;2022-10-22T15:05:38;44.00;;;41.10;;
8397;SDS011;4236;54.504;9.588;2022-10-22T15:08:08;45.10;;;42.20;;
8397;SDS011;4236;54.504;9.588;2022-10-22T15:10:36;44.07;;;41.00;;